sensor_id;sensor_type;location;lat;lon;timestamp;P1;durP1;ratioP1;P2;durP2;ratioP2
83732;SDS011;73710;49.968;8.338;2024-01-11T00:01:14;5.57;;;4.90;;
83732;SDS011;73710;49.968;8.338;2024-01-11T00:03:39;12.30;;;3.17;;
83732;SDS011;73710;49.968;8.338;2024-01-11T00:06:05;8.48;;;6.32;;
83732;SDS011;73710;49.968;8.338;2024-01-11T00:08:30;13.95;;;4.82;;
83732;SDS011;73710;49.968;8.338;2024-01-11T00:10:55;7.30;;;5.03;;
83732;SDS011;73710;49.968;8.338;2024-01-11T00:13:21;14.20;;;5.47;;
83732;SDS011;73710;49.968;8.338;2024-01-11T00:15:46;13.75;;;5.60;;
83732;SDS011;73710;49.968;8.338;2024-01-11T00:18:12;16.73;;;5.68;;
83732;SDS011;73710;49.968;8.338;2024-01-11T00:20:37;12.60;;;3.75;;
83732;SDS011;73710;49.968;8.338;2024-01-11T00:23:02;16.65;;;7.25;;
83732;SDS011;73710;49.968;8.338;2024-01-11T00:25:28;10.20;;;4.00;;
83732;SDS011;73710;49.968;8.338;2024-01-11T00:27:53;11.90;;;7.30;;
83732;SDS011;73710;49.968;8.338;2024-01-11T00:30:19;5.80;;;3.83;;
83732;SDS011;73710;49.968;8.338;2024-01-11T00:32:44;19.13;;;7.23;;
83732;SDS011;73710;49.968;8.338;2024-01-11T00:35:09;19.50;;;6.50;;
83732;SDS011;73710;49.968;8.338;2024-01-11T00:37:35;9.45;;;7.25;;
83732;SDS011;73710;49.968;8.338;2024-01-11T00:40:00;16.23;;;5.73;;
83732;SDS011;73710;49.968;8.338;2024-01-11T00:42:26;8.98;;;5.75;;
83732;SDS011;73710;49.968;8.338;2024-01-11T00:44:51;6.43;;;5.15;;
83732;SDS011;73710;49.968;8.338;2024-01-11T00:47:16;13.88;;;5.57;;
83732;SDS011;73710;49.968;8.338;2024-01-11T00:49:42;7.57;;;4.63;;
83732;SDS011;73710;49.968;8.338;2024-01-11T00:52:08;5.90;;;4.43;;
83732;SDS011;73710;49.968;8.338;2024-01-11T00:54:34;11.25;;;4.93;;
83732;SDS011;73710;49.968;8.338;2024-01-11T00:57:00;11.48;;;6.90;;
83732;SDS011;73710;49.968;8.338;2024-01-11T00:59:26;8.48;;;5.03;;
83732;SDS011;73710;49.968;8.338;2024-01-11T01:01:51;13.80;;;6.57;;
83732;SDS011;73710;49.968;8.338;2024-01-11T01:04:17;8.93;;;5.73;;
83732;SDS011;73710;49.968;8.338;2024-01-11T01:06:42;8.05;;;5.20;;
83732;SDS011;73710;49.968;8.338;2024-01-11T01:09:08;10.75;;;5.35;;
83732;SDS011;73710;49.968;8.338;2024-01-11T01:11:34;11.10;;;6.18;;
83732;SDS011;73710;49.968;8.338;2024-01-11T01:13:59;8.30;;;3.53;;
83732;SDS011;73710;49.968;8.338;2024-01-11T01:16:25;10.45;;;4.72;;
83732;SDS011;73710;49.968;8.338;2024-01-11T01:18:50;6.88;;;4.75;;
83732;SDS011;73710;49.968;8.338;2024-01-11T01:21:16;6.40;;;5.60;;
83732;SDS011;73710;49.968;8.338;2024-01-11T01:23:41;12.15;;;5.57;;
83732;SDS011;73710;49.968;8.338;2024-01-11T01:26:06;9.40;;;4.13;;
83732;SDS011;73710;49.968;8.338;2024-01-11T01:28:32;7.93;;;5.20;;
83732;SDS011;73710;49.968;8.338;2024-01-11T01:30:57;7.97;;;6.65;;
83732;SDS011;73710;49.968;8.338;2024-01-11T01:33:22;7.13;;;5.38;;
83732;SDS011;73710;49.968;8.338;2024-01-11T01:35:48;5.82;;;4.30;;
83732;SDS011;73710;49.968;8.338;2024-01-11T01:38:13;15.68;;;6.35;;
83732;SDS011;73710;49.968;8.338;2024-01-11T01:40:39;16.90;;;4.40;;
83732;SDS011;73710;49.968;8.338;2024-01-11T01:43:06;5.10;;;4.17;;
83732;SDS011;73710;49.968;8.338;2024-01-11T01:45:34;6.40;;;4.38;;
83732;SDS011;73710;49.968;8.338;2024-01-11T01:47:59;7.43;;;5.57;;
83732;SDS011;73710;49.968;8.338;2024-01-11T01:50:24;8.85;;;6.03;;
83732;SDS011;73710;49.968;8.338;2024-01-11T01:52:51;10.80;;;7.35;;
83732;SDS011;73710;49.968;8.338;2024-01-11T01:55:16;11.98;;;6.80;;
83732;SDS011;73710;49.968;8.338;2024-01-11T01:57:42;14.48;;;3.90;;
83732;SDS011;73710;49.968;8.338;2024-01-11T02:00:10;7.72;;;4.85;;
83732;SDS011;73710;49.968;8.338;2024-01-11T02:02:39;7.13;;;5.18;;
83732;SDS011;73710;49.968;8.338;2024-01-11T02:05:07;10.05;;;5.57;;
83732;SDS011;73710;49.968;8.338;2024-01-11T02:07:33;5.88;;;4.22;;
83732;SDS011;73710;49.968;8.338;2024-01-11T02:09:58;10.93;;;5.70;;
83732;SDS011;73710;49.968;8.338;2024-01-11T02:12:25;11.90;;;6.38;;
83732;SDS011;73710;49.968;8.338;2024-01-11T02:14:52;7.57;;;5.00;;
83732;SDS011;73710;49.968;8.338;2024-01-11T02:17:18;9.23;;;6.13;;
83732;SDS011;73710;49.968;8.338;2024-01-11T02:19:43;10.02;;;6.15;;
83732;SDS011;73710;49.968;8.338;2024-01-11T02:22:12;9.40;;;4.63;;
83732;SDS011;73710;49.968;8.338;2024-01-11T02:24:43;6.75;;;4.38;;
83732;SDS011;73710;49.968;8.338;2024-01-11T02:27:08;20.05;;;4.32;;
83732;SDS011;73710;49.968;8.338;2024-01-11T02:29:35;14.00;;;5.93;;
83732;SDS011;73710;49.968;8.338;2024-01-11T02:32:01;9.50;;;5.82;;
83732;SDS011;73710;49.968;8.338;2024-01-11T02:34:27;11.18;;;5.78;;
83732;SDS011;73710;49.968;8.338;2024-01-11T02:36:53;10.55;;;5.70;;
83732;SDS011;73710;49.968;8.338;2024-01-11T02:39:19;13.73;;;4.70;;
83732;SDS011;73710;49.968;8.338;2024-01-11T02:41:47;7.43;;;4.53;;
83732;SDS011;73710;49.968;8.338;2024-01-11T02:44:14;9.43;;;4.40;;
83732;SDS011;73710;49.968;8.338;2024-01-11T02:46:40;6.45;;;4.25;;
83732;SDS011;73710;49.968;8.338;2024-01-11T02:49:05;7.17;;;4.57;;
83732;SDS011;73710;49.968;8.338;2024-01-11T02:51:31;9.65;;;5.28;;
83732;SDS011;73710;49.968;8.338;2024-01-11T02:53:56;6.50;;;5.00;;
83732;SDS011;73710;49.968;8.338;2024-01-11T02:56:21;4.80;;;4.28;;
83732;SDS011;73710;49.968;8.338;2024-01-11T02:58:47;20.27;;;9.55;;
83732;SDS011;73710;49.968;8.338;2024-01-11T03:01:12;8.20;;;5.20;;
83732;SDS011;73710;49.968;8.338;2024-01-11T03:03:37;7.85;;;4.03;;
83732;SDS011;73710;49.968;8.338;2024-01-11T03:06:03;9.80;;;6.53;;
83732;SDS011;73710;49.968;8.338;2024-01-11T03:08:29;6.35;;;4.47;;
83732;SDS011;73710;49.968;8.338;2024-01-11T03:10:54;4.55;;;3.47;;
83732;SDS011;73710;49.968;8.338;2024-01-11T03:13:20;9.77;;;5.10;;
83732;SDS011;73710;49.968;8.338;2024-01-11T03:15:45;9.13;;;4.00;;
83732;SDS011;73710;49.968;8.338;2024-01-11T03:18:11;3.88;;;2.53;;
83732;SDS011;73710;49.968;8.338;2024-01-11T03:20:36;7.95;;;4.55;;
83732;SDS011;73710;49.968;8.338;2024-01-11T03:23:01;7.07;;;4.30;;
83732;SDS011;73710;49.968;8.338;2024-01-11T03:25:28;7.35;;;4.53;;
83732;SDS011;73710;49.968;8.338;2024-01-11T03:27:54;8.45;;;3.83;;
83732;SDS011;73710;49.968;8.338;2024-01-11T03:30:20;14.27;;;5.13;;
83732;SDS011;73710;49.968;8.338;2024-01-11T03:32:45;8.27;;;5.22;;
83732;SDS011;73710;49.968;8.338;2024-01-11T03:35:10;9.63;;;5.55;;
83732;SDS011;73710;49.968;8.338;2024-01-11T03:37:36;8.30;;;2.83;;
83732;SDS011;73710;49.968;8.338;2024-01-11T03:40:02;15.73;;;5.45;;
83732;SDS011;73710;49.968;8.338;2024-01-11T03:42:28;5.53;;;3.83;;
83732;SDS011;73710;49.968;8.338;2024-01-11T03:44:54;10.98;;;3.70;;
83732;SDS011;73710;49.968;8.338;2024-01-11T03:47:20;12.10;;;3.95;;
83732;SDS011;73710;49.968;8.338;2024-01-11T03:49:45;16.75;;;5.90;;
83732;SDS011;73710;49.968;8.338;2024-01-11T03:52:11;7.67;;;4.13;;
83732;SDS011;73710;49.968;8.338;2024-01-11T03:54:36;9.48;;;6.45;;
83732;SDS011;73710;49.968;8.338;2024-01-11T03:57:01;11.00;;;4.50;;
83732;SDS011;73710;49.968;8.338;2024-01-11T03:59:27;5.18;;;4.78;;
83732;SDS011;73710;49.968;8.338;2024-01-11T04:01:52;11.82;;;4.20;;
83732;SDS011;73710;49.968;8.338;2024-01-11T04:04:18;7.03;;;4.55;;
83732;SDS011;73710;49.968;8.338;2024-01-11T04:06:44;9.60;;;5.80;;
83732;SDS011;73710;49.968;8.338;2024-01-11T04:09:10;9.48;;;6.03;;
83732;SDS011;73710;49.968;8.338;2024-01-11T04:11:35;3.47;;;2.90;;
83732;SDS011;73710;49.968;8.338;2024-01-11T04:14:01;9.20;;;5.15;;
83732;SDS011;73710;49.968;8.338;2024-01-11T04:16:26;5.18;;;3.25;;
83732;SDS011;73710;49.968;8.338;2024-01-11T04:18:52;12.45;;;4.43;;
83732;SDS011;73710;49.968;8.338;2024-01-11T04:21:23;4.23;;;3.53;;
83732;SDS011;73710;49.968;8.338;2024-01-11T04:23:49;3.13;;;2.85;;
83732;SDS011;73710;49.968;8.338;2024-01-11T04:26:15;7.15;;;4.10;;
83732;SDS011;73710;49.968;8.338;2024-01-11T04:28:41;8.98;;;5.00;;
83732;SDS011;73710;49.968;8.338;2024-01-11T04:31:10;4.68;;;3.13;;
83732;SDS011;73710;49.968;8.338;2024-01-11T04:33:35;4.05;;;3.13;;
83732;SDS011;73710;49.968;8.338;2024-01-11T04:36:00;9.63;;;4.72;;
83732;SDS011;73710;49.968;8.338;2024-01-11T04:38:26;4.00;;;3.67;;
83732;SDS011;73710;49.968;8.338;2024-01-11T04:40:51;5.63;;;2.93;;
83732;SDS011;73710;49.968;8.338;2024-01-11T04:43:16;5.70;;;4.80;;
83732;SDS011;73710;49.968;8.338;2024-01-11T04:45:42;3.10;;;2.83;;
83732;SDS011;73710;49.968;8.338;2024-01-11T04:48:07;7.45;;;6.63;;
83732;SDS011;73710;49.968;8.338;2024-01-11T04:50:32;6.43;;;3.77;;
83732;SDS011;73710;49.968;8.338;2024-01-11T04:52:58;10.10;;;5.10;;
83732;SDS011;73710;49.968;8.338;2024-01-11T04:55:23;5.43;;;3.90;;
83732;SDS011;73710;49.968;8.338;2024-01-11T04:57:48;4.03;;;3.67;;
83732;SDS011;73710;49.968;8.338;2024-01-11T05:00:14;3.40;;;3.13;;
83732;SDS011;73710;49.968;8.338;2024-01-11T05:02:39;14.55;;;5.13;;
83732;SDS011;73710;49.968;8.338;2024-01-11T05:05:05;3.10;;;1.58;;
83732;SDS011;73710;49.968;8.338;2024-01-11T05:07:30;4.68;;;3.60;;
83732;SDS011;73710;49.968;8.338;2024-01-11T05:09:56;10.57;;;5.90;;
83732;SDS011;73710;49.968;8.338;2024-01-11T05:12:21;9.40;;;4.05;;
83732;SDS011;73710;49.968;8.338;2024-01-11T05:14:46;6.00;;;2.93;;
83732;SDS011;73710;49.968;8.338;2024-01-11T05:17:12;5.07;;;3.67;;
83732;SDS011;73710;49.968;8.338;2024-01-11T05:19:38;8.23;;;4.70;;
83732;SDS011;73710;49.968;8.338;2024-01-11T05:22:03;7.43;;;6.18;;
83732;SDS011;73710;49.968;8.338;2024-01-11T05:24:31;9.68;;;4.55;;
83732;SDS011;73710;49.968;8.338;2024-01-11T05:26:56;12.93;;;4.30;;
83732;SDS011;73710;49.968;8.338;2024-01-11T05:29:23;5.35;;;4.00;;
83732;SDS011;73710;49.968;8.338;2024-01-11T05:31:48;7.40;;;3.25;;
83732;SDS011;73710;49.968;8.338;2024-01-11T05:34:13;8.13;;;5.30;;
83732;SDS011;73710;49.968;8.338;2024-01-11T05:36:39;6.03;;;4.68;;
83732;SDS011;73710;49.968;8.338;2024-01-11T05:39:04;10.57;;;6.03;;
83732;SDS011;73710;49.968;8.338;2024-01-11T05:41:30;13.70;;;5.40;;
83732;SDS011;73710;49.968;8.338;2024-01-11T05:43:55;4.40;;;3.30;;
83732;SDS011;73710;49.968;8.338;2024-01-11T05:46:20;4.80;;;3.40;;
83732;SDS011;73710;49.968;8.338;2024-01-11T05:48:46;14.40;;;4.78;;
83732;SDS011;73710;49.968;8.338;2024-01-11T05:51:11;8.35;;;5.07;;
83732;SDS011;73710;49.968;8.338;2024-01-11T05:53:37;8.88;;;3.80;;
83732;SDS011;73710;49.968;8.338;2024-01-11T05:56:07;6.03;;;3.75;;
83732;SDS011;73710;49.968;8.338;2024-01-11T05:58:33;9.88;;;5.75;;
83732;SDS011;73710;49.968;8.338;2024-01-11T06:00:58;5.38;;;3.58;;
83732;SDS011;73710;49.968;8.338;2024-01-11T06:03:24;15.18;;;3.65;;
83732;SDS011;73710;49.968;8.338;2024-01-11T06:05:50;6.10;;;4.47;;
83732;SDS011;73710;49.968;8.338;2024-01-11T06:08:15;7.22;;;3.92;;
83732;SDS011;73710;49.968;8.338;2024-01-11T06:10:40;5.78;;;4.70;;
83732;SDS011;73710;49.968;8.338;2024-01-11T06:13:06;8.30;;;5.68;;
83732;SDS011;73710;49.968;8.338;2024-01-11T06:15:31;5.88;;;4.35;;
83732;SDS011;73710;49.968;8.338;2024-01-11T06:17:57;8.63;;;6.73;;
83732;SDS011;73710;49.968;8.338;2024-01-11T06:20:22;9.53;;;4.37;;
83732;SDS011;73710;49.968;8.338;2024-01-11T06:22:47;6.73;;;4.30;;
83732;SDS011;73710;49.968;8.338;2024-01-11T06:25:13;6.63;;;5.80;;
83732;SDS011;73710;49.968;8.338;2024-01-11T06:27:38;9.57;;;4.88;;
83732;SDS011;73710;49.968;8.338;2024-01-11T06:30:04;7.57;;;6.07;;
83732;SDS011;73710;49.968;8.338;2024-01-11T06:32:30;10.60;;;6.07;;
83732;SDS011;73710;49.968;8.338;2024-01-11T06:34:55;12.33;;;5.63;;
83732;SDS011;73710;49.968;8.338;2024-01-11T06:37:20;7.07;;;4.23;;
83732;SDS011;73710;49.968;8.338;2024-01-11T06:39:46;18.85;;;5.15;;
83732;SDS011;73710;49.968;8.338;2024-01-11T06:42:12;5.97;;;4.18;;
83732;SDS011;73710;49.968;8.338;2024-01-11T06:44:37;19.50;;;5.03;;
83732;SDS011;73710;49.968;8.338;2024-01-11T06:47:02;12.07;;;4.63;;
83732;SDS011;73710;49.968;8.338;2024-01-11T06:49:30;17.55;;;6.72;;
83732;SDS011;73710;49.968;8.338;2024-01-11T06:51:56;9.80;;;6.40;;
83732;SDS011;73710;49.968;8.338;2024-01-11T06:54:21;11.38;;;6.43;;
83732;SDS011;73710;49.968;8.338;2024-01-11T06:56:46;9.00;;;4.20;;
83732;SDS011;73710;49.968;8.338;2024-01-11T06:59:12;9.80;;;5.27;;
83732;SDS011;73710;49.968;8.338;2024-01-11T07:01:37;8.93;;;6.53;;
83732;SDS011;73710;49.968;8.338;2024-01-11T07:04:02;5.43;;;3.80;;
83732;SDS011;73710;49.968;8.338;2024-01-11T07:06:28;5.78;;;4.60;;
83732;SDS011;73710;49.968;8.338;2024-01-11T07:08:53;4.60;;;3.30;;
83732;SDS011;73710;49.968;8.338;2024-01-11T07:11:18;7.33;;;4.20;;
83732;SDS011;73710;49.968;8.338;2024-01-11T07:13:44;18.38;;;6.78;;
83732;SDS011;73710;49.968;8.338;2024-01-11T07:16:09;11.17;;;4.03;;
83732;SDS011;73710;49.968;8.338;2024-01-11T07:18:34;6.90;;;4.77;;
83732;SDS011;73710;49.968;8.338;2024-01-11T07:21:00;9.35;;;3.70;;
83732;SDS011;73710;49.968;8.338;2024-01-11T07:23:26;5.80;;;2.83;;
83732;SDS011;73710;49.968;8.338;2024-01-11T07:25:52;4.25;;;3.58;;
83732;SDS011;73710;49.968;8.338;2024-01-11T07:28:17;9.83;;;4.80;;
83732;SDS011;73710;49.968;8.338;2024-01-11T07:30:43;6.73;;;4.60;;
83732;SDS011;73710;49.968;8.338;2024-01-11T07:33:08;8.10;;;5.18;;
83732;SDS011;73710;49.968;8.338;2024-01-11T07:35:34;4.80;;;3.67;;
83732;SDS011;73710;49.968;8.338;2024-01-11T07:38:00;3.58;;;2.88;;
83732;SDS011;73710;49.968;8.338;2024-01-11T07:40:25;9.32;;;3.97;;
83732;SDS011;73710;49.968;8.338;2024-01-11T07:42:50;17.50;;;8.03;;
83732;SDS011;73710;49.968;8.338;2024-01-11T07:45:16;12.75;;;5.03;;
83732;SDS011;73710;49.968;8.338;2024-01-11T07:47:41;11.07;;;6.05;;
83732;SDS011;73710;49.968;8.338;2024-01-11T07:50:07;8.60;;;5.32;;
83732;SDS011;73710;49.968;8.338;2024-01-11T07:52:35;10.43;;;4.15;;
83732;SDS011;73710;49.968;8.338;2024-01-11T07:55:02;9.05;;;4.10;;
83732;SDS011;73710;49.968;8.338;2024-01-11T07:57:35;10.85;;;6.53;;
83732;SDS011;73710;49.968;8.338;2024-01-11T08:00:02;11.65;;;5.47;;
83732;SDS011;73710;49.968;8.338;2024-01-11T08:02:37;8.50;;;6.65;;
83732;SDS011;73710;49.968;8.338;2024-01-11T08:05:03;9.77;;;6.75;;
83732;SDS011;73710;49.968;8.338;2024-01-11T08:07:29;10.45;;;5.53;;
83732;SDS011;73710;49.968;8.338;2024-01-11T08:09:55;6.25;;;4.70;;
83732;SDS011;73710;49.968;8.338;2024-01-11T08:12:20;7.20;;;4.85;;
83732;SDS011;73710;49.968;8.338;2024-01-11T08:14:46;22.40;;;5.72;;
83732;SDS011;73710;49.968;8.338;2024-01-11T08:17:12;9.60;;;6.25;;
83732;SDS011;73710;49.968;8.338;2024-01-11T08:19:41;7.90;;;4.93;;
83732;SDS011;73710;49.968;8.338;2024-01-11T08:22:10;10.80;;;6.45;;
83732;SDS011;73710;49.968;8.338;2024-01-11T08:24:36;9.30;;;5.85;;
83732;SDS011;73710;49.968;8.338;2024-01-11T08:27:02;5.80;;;3.92;;
83732;SDS011;73710;49.968;8.338;2024-01-11T08:29:27;7.25;;;3.78;;
83732;SDS011;73710;49.968;8.338;2024-01-11T08:31:53;9.35;;;5.55;;
83732;SDS011;73710;49.968;8.338;2024-01-11T08:34:20;6.00;;;5.43;;
83732;SDS011;73710;49.968;8.338;2024-01-11T08:36:45;11.20;;;6.82;;
83732;SDS011;73710;49.968;8.338;2024-01-11T08:39:11;7.95;;;5.75;;
83732;SDS011;73710;49.968;8.338;2024-01-11T08:41:38;4.97;;;3.72;;
83732;SDS011;73710;49.968;8.338;2024-01-11T08:44:03;10.82;;;5.57;;
83732;SDS011;73710;49.968;8.338;2024-01-11T08:46:32;11.65;;;5.63;;
83732;SDS011;73710;49.968;8.338;2024-01-11T08:49:01;10.90;;;6.10;;
83732;SDS011;73710;49.968;8.338;2024-01-11T08:51:30;7.88;;;5.55;;
83732;SDS011;73710;49.968;8.338;2024-01-11T08:53:57;10.55;;;6.65;;
83732;SDS011;73710;49.968;8.338;2024-01-11T08:56:23;9.60;;;6.95;;
83732;SDS011;73710;49.968;8.338;2024-01-11T08:58:48;17.45;;;8.60;;
83732;SDS011;73710;49.968;8.338;2024-01-11T09:01:14;14.43;;;7.78;;
83732;SDS011;73710;49.968;8.338;2024-01-11T09:03:40;9.88;;;6.93;;
83732;SDS011;73710;49.968;8.338;2024-01-11T09:06:05;15.88;;;9.48;;
83732;SDS011;73710;49.968;8.338;2024-01-11T09:08:31;18.63;;;6.85;;
83732;SDS011;73710;49.968;8.338;2024-01-11T09:10:56;14.82;;;8.00;;
83732;SDS011;73710;49.968;8.338;2024-01-11T09:13:25;13.18;;;6.53;;
83732;SDS011;73710;49.968;8.338;2024-01-11T09:15:53;10.63;;;6.88;;
83732;SDS011;73710;49.968;8.338;2024-01-11T09:18:20;22.98;;;7.80;;
83732;SDS011;73710;49.968;8.338;2024-01-11T09:20:45;19.00;;;10.00;;
83732;SDS011;73710;49.968;8.338;2024-01-11T09:23:12;10.10;;;6.05;;
83732;SDS011;73710;49.968;8.338;2024-01-11T09:25:37;19.88;;;6.65;;
83732;SDS011;73710;49.968;8.338;2024-01-11T09:28:03;18.43;;;8.17;;
83732;SDS011;73710;49.968;8.338;2024-01-11T09:30:28;11.65;;;9.15;;
83732;SDS011;73710;49.968;8.338;2024-01-11T09:32:54;18.33;;;7.80;;
83732;SDS011;73710;49.968;8.338;2024-01-11T09:35:21;16.30;;;7.25;;
83732;SDS011;73710;49.968;8.338;2024-01-11T09:37:48;12.70;;;7.85;;
83732;SDS011;73710;49.968;8.338;2024-01-11T09:40:14;12.95;;;6.13;;
83732;SDS011;73710;49.968;8.338;2024-01-11T09:42:39;12.27;;;7.18;;
83732;SDS011;73710;49.968;8.338;2024-01-11T09:45:15;20.27;;;6.43;;
83732;SDS011;73710;49.968;8.338;2024-01-11T09:47:41;12.40;;;6.85;;
83732;SDS011;73710;49.968;8.338;2024-01-11T09:50:07;12.38;;;7.88;;
83732;SDS011;73710;49.968;8.338;2024-01-11T09:52:33;12.18;;;7.70;;
83732;SDS011;73710;49.968;8.338;2024-01-11T09:54:59;13.20;;;7.20;;
83732;SDS011;73710;49.968;8.338;2024-01-11T09:57:28;22.77;;;8.25;;
83732;SDS011;73710;49.968;8.338;2024-01-11T09:59:57;23.67;;;8.45;;
83732;SDS011;73710;49.968;8.338;2024-01-11T10:02:23;23.55;;;9.35;;
83732;SDS011;73710;49.968;8.338;2024-01-11T10:04:51;15.23;;;11.02;;
83732;SDS011;73710;49.968;8.338;2024-01-11T10:07:18;22.75;;;9.68;;
83732;SDS011;73710;49.968;8.338;2024-01-11T10:09:47;12.05;;;7.15;;
83732;SDS011;73710;49.968;8.338;2024-01-11T10:12:13;23.00;;;10.48;;
83732;SDS011;73710;49.968;8.338;2024-01-11T10:14:39;10.55;;;6.60;;
83732;SDS011;73710;49.968;8.338;2024-01-11T10:17:04;12.15;;;8.15;;
83732;SDS011;73710;49.968;8.338;2024-01-11T10:19:31;11.10;;;8.70;;
83732;SDS011;73710;49.968;8.338;2024-01-11T10:21:57;16.80;;;9.05;;
83732;SDS011;73710;49.968;8.338;2024-01-11T10:24:24;18.30;;;9.38;;
83732;SDS011;73710;49.968;8.338;2024-01-11T10:26:57;15.05;;;9.60;;
83732;SDS011;73710;49.968;8.338;2024-01-11T10:29:31;9.70;;;7.10;;
83732;SDS011;73710;49.968;8.338;2024-01-11T10:31:57;15.15;;;6.88;;
83732;SDS011;73710;49.968;8.338;2024-01-11T10:34:25;19.67;;;8.35;;
83732;SDS011;73710;49.968;8.338;2024-01-11T10:36:51;14.90;;;8.93;;
83732;SDS011;73710;49.968;8.338;2024-01-11T10:39:17;10.05;;;6.80;;
83732;SDS011;73710;49.968;8.338;2024-01-11T10:41:46;26.65;;;10.30;;
83732;SDS011;73710;49.968;8.338;2024-01-11T10:44:19;18.08;;;8.45;;
83732;SDS011;73710;49.968;8.338;2024-01-11T10:46:47;17.48;;;7.22;;
83732;SDS011;73710;49.968;8.338;2024-01-11T10:49:18;18.08;;;6.63;;
83732;SDS011;73710;49.968;8.338;2024-01-11T10:51:58;26.00;;;9.02;;
83732;SDS011;73710;49.968;8.338;2024-01-11T10:54:24;15.30;;;7.57;;
83732;SDS011;73710;49.968;8.338;2024-01-11T10:56:52;12.38;;;8.18;;
83732;SDS011;73710;49.968;8.338;2024-01-11T10:59:19;18.45;;;10.63;;
83732;SDS011;73710;49.968;8.338;2024-01-11T11:01:49;20.35;;;9.00;;
83732;SDS011;73710;49.968;8.338;2024-01-11T11:04:17;28.88;;;8.30;;
83732;SDS011;73710;49.968;8.338;2024-01-11T11:06:44;18.48;;;10.10;;
83732;SDS011;73710;49.968;8.338;2024-01-11T11:09:11;12.25;;;7.22;;
83732;SDS011;73710;49.968;8.338;2024-01-11T11:11:39;17.48;;;8.75;;
83732;SDS011;73710;49.968;8.338;2024-01-11T11:14:05;16.58;;;9.60;;
83732;SDS011;73710;49.968;8.338;2024-01-11T11:16:31;20.58;;;9.82;;
83732;SDS011;73710;49.968;8.338;2024-01-11T11:18:57;21.55;;;8.43;;
83732;SDS011;73710;49.968;8.338;2024-01-11T11:21:22;21.02;;;10.02;;
83732;SDS011;73710;49.968;8.338;2024-01-11T11:23:49;17.58;;;8.80;;
83732;SDS011;73710;49.968;8.338;2024-01-11T11:26:15;18.50;;;9.77;;
83732;SDS011;73710;49.968;8.338;2024-01-11T11:28:42;19.30;;;9.13;;
83732;SDS011;73710;49.968;8.338;2024-01-11T11:31:08;14.68;;;9.07;;
83732;SDS011;73710;49.968;8.338;2024-01-11T11:33:36;22.38;;;9.75;;
83732;SDS011;73710;49.968;8.338;2024-01-11T11:36:02;27.25;;;11.68;;
83732;SDS011;73710;49.968;8.338;2024-01-11T11:38:28;13.88;;;8.80;;
83732;SDS011;73710;49.968;8.338;2024-01-11T11:40:59;15.98;;;8.57;;
83732;SDS011;73710;49.968;8.338;2024-01-11T11:43:26;26.48;;;10.93;;
83732;SDS011;73710;49.968;8.338;2024-01-11T11:45:53;26.05;;;9.80;;
83732;SDS011;73710;49.968;8.338;2024-01-11T11:51:09;28.83;;;11.70;;
83732;SDS011;73710;49.968;8.338;2024-01-11T11:53:36;14.20;;;9.20;;
83732;SDS011;73710;49.968;8.338;2024-01-11T11:56:02;25.15;;;11.30;;
83732;SDS011;73710;49.968;8.338;2024-01-11T11:58:29;28.42;;;10.13;;
83732;SDS011;73710;49.968;8.338;2024-01-11T12:00:55;17.33;;;10.02;;
83732;SDS011;73710;49.968;8.338;2024-01-11T12:03:28;17.98;;;8.95;;
83732;SDS011;73710;49.968;8.338;2024-01-11T12:05:58;20.70;;;9.85;;
83732;SDS011;73710;49.968;8.338;2024-01-11T12:08:24;19.80;;;10.82;;
83732;SDS011;73710;49.968;8.338;2024-01-11T12:10:53;25.13;;;10.38;;
83732;SDS011;73710;49.968;8.338;2024-01-11T12:13:19;21.50;;;10.43;;
83732;SDS011;73710;49.968;8.338;2024-01-11T12:15:45;22.27;;;10.15;;
83732;SDS011;73710;49.968;8.338;2024-01-11T12:18:11;19.40;;;8.75;;
83732;SDS011;73710;49.968;8.338;2024-01-11T12:20:36;18.25;;;9.25;;
83732;SDS011;73710;49.968;8.338;2024-01-11T12:23:02;30.38;;;9.98;;
83732;SDS011;73710;49.968;8.338;2024-01-11T12:25:28;18.92;;;9.43;;
83732;SDS011;73710;49.968;8.338;2024-01-11T12:27:54;18.92;;;10.15;;
83732;SDS011;73710;49.968;8.338;2024-01-11T12:30:23;19.90;;;10.13;;
83732;SDS011;73710;49.968;8.338;2024-01-11T12:32:49;18.85;;;8.50;;
83732;SDS011;73710;49.968;8.338;2024-01-11T12:35:16;17.83;;;9.48;;
83732;SDS011;73710;49.968;8.338;2024-01-11T12:37:54;20.33;;;10.13;;
83732;SDS011;73710;49.968;8.338;2024-01-11T12:40:23;21.88;;;9.98;;
83732;SDS011;73710;49.968;8.338;2024-01-11T12:42:49;16.55;;;9.70;;
83732;SDS011;73710;49.968;8.338;2024-01-11T12:45:15;15.15;;;8.13;;
83732;SDS011;73710;49.968;8.338;2024-01-11T12:47:42;27.95;;;13.15;;
83732;SDS011;73710;49.968;8.338;2024-01-11T12:50:08;19.52;;;10.05;;
83732;SDS011;73710;49.968;8.338;2024-01-11T12:52:34;24.58;;;9.18;;
83732;SDS011;73710;49.968;8.338;2024-01-11T12:54:59;21.63;;;10.10;;
83732;SDS011;73710;49.968;8.338;2024-01-11T12:57:25;20.23;;;10.50;;
83732;SDS011;73710;49.968;8.338;2024-01-11T12:59:51;17.55;;;8.73;;
83732;SDS011;73710;49.968;8.338;2024-01-11T13:02:17;16.90;;;9.25;;
83732;SDS011;73710;49.968;8.338;2024-01-11T13:04:43;24.60;;;9.98;;
83732;SDS011;73710;49.968;8.338;2024-01-11T13:07:11;19.42;;;10.32;;
83732;SDS011;73710;49.968;8.338;2024-01-11T13:09:38;15.35;;;8.77;;
83732;SDS011;73710;49.968;8.338;2024-01-11T13:12:03;25.02;;;11.70;;
83732;SDS011;73710;49.968;8.338;2024-01-11T13:14:29;19.27;;;10.70;;
83732;SDS011;73710;49.968;8.338;2024-01-11T13:16:55;21.38;;;10.10;;
83732;SDS011;73710;49.968;8.338;2024-01-11T13:19:20;22.65;;;11.32;;
83732;SDS011;73710;49.968;8.338;2024-01-11T13:21:45;19.13;;;9.75;;
83732;SDS011;73710;49.968;8.338;2024-01-11T13:24:11;19.30;;;10.90;;
83732;SDS011;73710;49.968;8.338;2024-01-11T13:26:38;29.35;;;9.13;;
83732;SDS011;73710;49.968;8.338;2024-01-11T13:29:04;16.50;;;9.32;;
83732;SDS011;73710;49.968;8.338;2024-01-11T13:31:30;16.05;;;9.50;;
83732;SDS011;73710;49.968;8.338;2024-01-11T13:33:56;14.93;;;8.95;;
83732;SDS011;73710;49.968;8.338;2024-01-11T13:36:22;21.38;;;10.68;;
83732;SDS011;73710;49.968;8.338;2024-01-11T13:38:48;17.98;;;9.80;;
83732;SDS011;73710;49.968;8.338;2024-01-11T13:41:14;18.08;;;9.57;;
83732;SDS011;73710;49.968;8.338;2024-01-11T13:43:41;21.50;;;10.30;;
83732;SDS011;73710;49.968;8.338;2024-01-11T13:46:06;18.48;;;10.30;;
83732;SDS011;73710;49.968;8.338;2024-01-11T13:48:32;21.80;;;9.77;;
83732;SDS011;73710;49.968;8.338;2024-01-11T13:50:58;16.38;;;9.23;;
83732;SDS011;73710;49.968;8.338;2024-01-11T13:53:24;19.05;;;10.43;;
83732;SDS011;73710;49.968;8.338;2024-01-11T13:55:50;19.27;;;9.48;;
83732;SDS011;73710;49.968;8.338;2024-01-11T13:58:19;22.45;;;10.15;;
83732;SDS011;73710;49.968;8.338;2024-01-11T14:00:44;19.33;;;9.93;;
83732;SDS011;73710;49.968;8.338;2024-01-11T14:03:09;16.20;;;9.70;;
83732;SDS011;73710;49.968;8.338;2024-01-11T14:05:36;23.00;;;10.63;;
83732;SDS011;73710;49.968;8.338;2024-01-11T14:08:02;26.27;;;10.70;;
83732;SDS011;73710;49.968;8.338;2024-01-11T14:10:30;23.38;;;10.82;;
83732;SDS011;73710;49.968;8.338;2024-01-11T14:12:57;20.25;;;9.75;;
83732;SDS011;73710;49.968;8.338;2024-01-11T14:15:23;23.98;;;12.27;;
83732;SDS011;73710;49.968;8.338;2024-01-11T14:17:49;19.70;;;9.93;;
83732;SDS011;73710;49.968;8.338;2024-01-11T14:20:15;21.88;;;11.20;;
83732;SDS011;73710;49.968;8.338;2024-01-11T14:22:40;21.10;;;9.85;;
83732;SDS011;73710;49.968;8.338;2024-01-11T14:25:07;16.45;;;9.82;;
83732;SDS011;73710;49.968;8.338;2024-01-11T14:27:34;17.15;;;9.57;;
83732;SDS011;73710;49.968;8.338;2024-01-11T14:29:59;16.48;;;9.48;;
83732;SDS011;73710;49.968;8.338;2024-01-11T14:32:24;19.60;;;11.30;;
83732;SDS011;73710;49.968;8.338;2024-01-11T14:34:52;23.55;;;11.57;;